createdAt,value
2023-05-18T00:00:46.742Z,98889.66
2023-05-18T00:03:15.533Z,98896.19
2023-05-18T00:05:43.878Z,98886.38
2023-05-18T00:08:13.042Z,98888.75
2023-05-18T00:10:40.954Z,98885.97
2023-05-18T00:13:08.998Z,98879.72
2023-05-18T00:15:36.815Z,98881.13
2023-05-18T00:18:04.987Z,98879.16
2023-05-18T00:20:34.704Z,98884.34
2023-05-18T00:23:02.579Z,98875.22
2023-05-18T00:25:31.912Z,98865.72
2023-05-18T00:27:59.739Z,98878.50
2023-05-18T00:30:27.633Z,98870.66
2023-05-18T00:32:55.450Z,98878.94
2023-05-18T00:35:23.326Z,98878.56
2023-05-18T00:37:51.072Z,98880.66
2023-05-18T00:40:19.151Z,98878.69
2023-05-18T00:42:48.453Z,98875.59
2023-05-18T00:45:16.240Z,98881.06
2023-05-18T00:47:44.302Z,98881.31
2023-05-18T00:50:12.515Z,98882.22
2023-05-18T00:52:40.729Z,98882.31
2023-05-18T00:55:09.676Z,98882.56
2023-05-18T00:57:38.310Z,98892.03
2023-05-18T01:00:10.928Z,98894.06
2023-05-18T01:02:43.212Z,98884.59
2023-05-18T01:05:12.568Z,98881.28
2023-05-18T01:07:42.625Z,98887.22
2023-05-18T01:10:12.321Z,98881.38
2023-05-18T01:12:46.670Z,98885.22
2023-05-18T01:15:19.393Z,98876.78
2023-05-18T01:18:00.795Z,98881.81
2023-05-18T01:20:37.843Z,98876.38
2023-05-18T01:23:42.559Z,98880.19
2023-05-18T01:26:29.949Z,98884.00
2023-05-18T01:29:00.470Z,98886.03
2023-05-18T01:31:28.930Z,98884.72
2023-05-18T01:33:56.852Z,98880.00
2023-05-18T01:36:24.559Z,98880.19
2023-05-18T01:38:53.015Z,98869.94
2023-05-18T01:41:24.317Z,98875.66
2023-05-18T01:43:57.453Z,98880.00
2023-05-18T01:46:39.663Z,98883.00
2023-05-18T01:49:12.631Z,98876.91
2023-05-18T01:51:45.461Z,98870.47
2023-05-18T01:54:17.158Z,98869.34
2023-05-18T01:56:48.323Z,98868.75
2023-05-18T01:59:18.111Z,98861.31
2023-05-18T02:01:46.030Z,98867.91
2023-05-18T02:04:13.916Z,98861.31
2023-05-18T02:06:41.751Z,98859.50
2023-05-18T02:09:10.162Z,98857.06
2023-05-18T02:11:38.186Z,98852.75
2023-05-18T02:14:07.568Z,98852.84
2023-05-18T02:16:35.346Z,98848.09
2023-05-18T02:19:03.504Z,98851.31
2023-05-18T02:21:31.573Z,98861.84
2023-05-18T02:23:59.346Z,98855.84
2023-05-18T02:26:27.403Z,98861.63
2023-05-18T02:28:55.103Z,98857.09
2023-05-18T02:31:24.279Z,98850.69
2023-05-18T02:33:52.006Z,98857.81
2023-05-18T02:36:22.506Z,98853.41
2023-05-18T02:38:50.609Z,98849.16
2023-05-18T02:41:18.459Z,98858.97
2023-05-18T02:43:46.247Z,98856.97
2023-05-18T02:46:14.187Z,98854.13
2023-05-18T02:48:46.059Z,98849.09
2023-05-18T02:51:14.068Z,98851.31
2023-05-18T02:53:44.041Z,98855.47
2023-05-18T02:56:12.351Z,98848.84
2023-05-18T02:58:40.393Z,98856.56
2023-05-18T03:01:09.101Z,98852.53
2023-05-18T03:03:37.011Z,98867.09
2023-05-18T03:06:08.270Z,98858.47
2023-05-18T03:08:37.293Z,98864.47
2023-05-18T03:11:05.529Z,98854.25
2023-05-18T03:13:33.241Z,98858.06
2023-05-18T03:16:01.008Z,98851.63
2023-05-18T03:18:28.819Z,98863.47
2023-05-18T03:21:02.045Z,98861.47
2023-05-18T03:23:31.720Z,98859.50
2023-05-18T03:25:59.510Z,98858.25
2023-05-18T03:28:27.419Z,98858.69
2023-05-18T03:30:55.630Z,98862.28
2023-05-18T03:33:23.334Z,98856.28
2023-05-18T03:35:52.320Z,98858.47
2023-05-18T03:38:20.161Z,98861.69
2023-05-18T03:40:50.216Z,98864.31
2023-05-18T03:43:19.086Z,98862.50
2023-05-18T03:45:46.864Z,98862.13
2023-05-18T03:48:14.679Z,98860.59
2023-05-18T03:50:42.501Z,98859.50
2023-05-18T03:53:10.463Z,98869.41
2023-05-18T03:55:41.890Z,98869.47
2023-05-18T03:58:11.403Z,98861.84
2023-05-18T04:00:39.828Z,98867.84
2023-05-18T04:03:08.055Z,98875.09
2023-05-18T04:05:35.855Z,98878.50
2023-05-18T04:08:03.770Z,98876.91
2023-05-18T04:10:31.934Z,98878.50
2023-05-18T04:12:59.738Z,98877.88
2023-05-18T04:15:29.150Z,98872.78
2023-05-18T04:17:57.586Z,98876.59
2023-05-18T04:20:28.632Z,98878.50
2023-05-18T04:22:57.440Z,98883.47
2023-05-18T04:25:28.066Z,98887.47
2023-05-18T04:27:56.586Z,98891.63
2023-05-18T04:30:24.898Z,98887.53
2023-05-18T04:32:54.907Z,98894.97
2023-05-18T04:35:23.019Z,98899.72
2023-05-18T04:37:50.810Z,98899.09
2023-05-18T04:40:19.021Z,98903.84
2023-05-18T04:42:47.563Z,98908.50
2023-05-18T04:45:17.971Z,98910.03
2023-05-18T04:47:47.162Z,98911.13
2023-05-18T04:53:04.442Z,98908.84
2023-05-18T04:55:33.512Z,98905.81
2023-05-18T04:58:01.911Z,98907.13
2023-05-18T05:00:30.762Z,98906.72
2023-05-18T05:02:59.863Z,98905.50
2023-05-18T05:05:28.107Z,98913.75
2023-05-18T05:07:56.162Z,98911.91
2023-05-18T05:10:25.549Z,98912.13
2023-05-18T05:12:53.641Z,98920.94
2023-05-18T05:15:21.423Z,98919.94
2023-05-18T05:17:50.093Z,98911.84
2023-05-18T05:20:18.379Z,98905.44
2023-05-18T05:22:46.109Z,98917.22
2023-05-18T05:25:13.978Z,98910.72
2023-05-18T05:27:43.108Z,98914.13
2023-05-18T05:30:11.484Z,98910.53
2023-05-18T05:32:40.368Z,98909.81
2023-05-18T05:35:08.610Z,98914.69
2023-05-18T05:37:36.505Z,98911.81
2023-05-18T05:40:06.182Z,98910.78
2023-05-18T05:42:35.179Z,98914.09
2023-05-18T05:45:04.634Z,98913.22
2023-05-18T05:47:32.413Z,98918.03
2023-05-18T05:50:00.719Z,98927.94
2023-05-18T05:52:30.287Z,98911.34
2023-05-18T05:54:58.045Z,98915.97
2023-05-18T05:57:26.407Z,98912.50
2023-05-18T05:59:54.183Z,98915.06
2023-05-18T06:02:23.441Z,98912.50
2023-05-18T06:04:51.180Z,98911.56
2023-05-18T06:07:18.892Z,98908.53
2023-05-18T06:09:46.784Z,98910.00
2023-05-18T06:12:14.995Z,98909.03
2023-05-18T06:14:43.124Z,98917.56
2023-05-18T06:17:11.151Z,98911.66
2023-05-18T06:19:40.310Z,98916.75
2023-05-18T06:22:08.146Z,98916.94
2023-05-18T06:24:36.262Z,98914.53
2023-05-18T06:27:04.196Z,98912.78
2023-05-18T06:29:31.890Z,98919.00
2023-05-18T06:31:59.764Z,98917.66
2023-05-18T06:34:27.586Z,98913.44
2023-05-18T06:36:56.964Z,98919.88
2023-05-18T06:39:24.898Z,98915.81
2023-05-18T06:41:52.799Z,98916.81
2023-05-18T06:44:20.534Z,98915.06
2023-05-18T06:46:49.179Z,98914.50
2023-05-18T06:49:16.892Z,98918.75
2023-05-18T06:51:45.811Z,98917.97
2023-05-18T06:54:15.256Z,98909.34
2023-05-18T06:56:43.565Z,98919.03
2023-05-18T06:59:11.338Z,98930.81
2023-05-18T07:01:39.278Z,98918.66
2023-05-18T07:04:07.781Z,98913.84
2023-05-18T07:06:36.622Z,98913.16
2023-05-18T07:09:05.720Z,98914.09
2023-05-18T07:11:34.913Z,98919.53
2023-05-18T07:14:02.856Z,98919.56
2023-05-18T07:16:31.344Z,98917.44
2023-05-18T07:18:59.747Z,98928.25
2023-05-18T07:21:27.518Z,98914.31
2023-05-18T07:23:55.776Z,98921.06
2023-05-18T07:26:23.956Z,98913.13
2023-05-18T07:28:53.410Z,98914.13
2023-05-18T07:31:22.223Z,98909.91
2023-05-18T07:33:50.296Z,98904.66
2023-05-18T07:36:18.362Z,98911.78
2023-05-18T07:38:46.170Z,98904.00
2023-05-18T07:41:14.326Z,98908.53
2023-05-18T07:43:42.103Z,98913.59
2023-05-18T07:46:11.278Z,98910.59
2023-05-18T07:48:40.765Z,98900.06
2023-05-18T07:51:09.358Z,98909.97
2023-05-18T07:53:38.072Z,98907.75
2023-05-18T07:56:07.030Z,98899.41
2023-05-18T07:58:35.280Z,98891.34
2023-05-18T08:01:03.689Z,98895.09
2023-05-18T08:03:32.965Z,98900.97
2023-05-18T08:06:01.101Z,98899.50
2023-05-18T08:08:28.939Z,98898.66
2023-05-18T08:10:56.862Z,98901.41
2023-05-18T08:13:24.816Z,98895.81
2023-05-18T08:16:03.028Z,98899.50
2023-05-18T08:18:40.646Z,98899.91
2023-05-18T08:21:10.082Z,98896.28
2023-05-18T08:23:38.462Z,98890.09
2023-05-18T08:26:08.454Z,98890.38
2023-05-18T08:28:36.491Z,98889.53
2023-05-18T08:31:04.551Z,98892.56
2023-05-18T08:33:33.406Z,98886.41
2023-05-18T08:36:02.999Z,98884.75
2023-05-18T08:38:32.014Z,98897.72
2023-05-18T08:41:09.484Z,98892.34
2023-05-18T08:43:43.870Z,98890.00
2023-05-18T08:46:21.182Z,98882.22
2023-05-18T08:48:53.163Z,98891.53
2023-05-18T08:51:24.437Z,98881.94
2023-05-18T08:53:56.616Z,98882.50
2023-05-18T08:56:26.646Z,98873.53
2023-05-18T08:58:57.925Z,98878.31
2023-05-18T09:01:29.610Z,98886.06
2023-05-18T09:03:59.881Z,98879.91
2023-05-18T09:06:32.612Z,98876.84
2023-05-18T09:09:04.879Z,98875.44
2023-05-18T09:11:36.357Z,98879.50
2023-05-18T09:14:14.179Z,98878.25
2023-05-18T09:16:49.501Z,98878.78
2023-05-18T09:19:17.963Z,98876.00
2023-05-18T09:21:52.537Z,98868.13
2023-05-18T09:24:25.053Z,98868.97
2023-05-18T09:26:56.770Z,98878.88
2023-05-18T09:29:26.991Z,98870.84
2023-05-18T09:32:03.452Z,98867.16
2023-05-18T09:34:42.091Z,98858.28
2023-05-18T09:37:11.908Z,98868.09
2023-05-18T09:39:40.663Z,98858.28
2023-05-18T09:42:10.548Z,98858.47
2023-05-18T09:44:38.403Z,98859.97
2023-05-18T09:47:13.955Z,98864.38
2023-05-18T09:49:45.218Z,98855.72
2023-05-18T09:52:18.704Z,98865.50
2023-05-18T09:54:59.207Z,98865.56
2023-05-18T09:57:29.887Z,98852.84
2023-05-18T10:00:01.032Z,98846.44
2023-05-18T10:02:29.127Z,98849.41
2023-05-18T10:04:57.552Z,98851.94
2023-05-18T10:07:26.634Z,98846.47
2023-05-18T10:10:05.425Z,98841.19
2023-05-18T10:12:35.223Z,98844.78
2023-05-18T10:15:02.952Z,98846.19
2023-05-18T10:17:34.980Z,98840.75
2023-05-18T10:20:04.775Z,98838.25
2023-05-18T10:22:36.810Z,98837.16
2023-05-18T10:25:07.083Z,98838.06
2023-05-18T10:27:37.205Z,98842.88
2023-05-18T10:30:09.716Z,98839.91
2023-05-18T10:32:40.204Z,98836.75
2023-05-18T10:35:10.116Z,98824.25
2023-05-18T10:37:41.570Z,98832.22
2023-05-18T10:40:12.555Z,98820.06
2023-05-18T10:42:42.783Z,98819.81
2023-05-18T10:45:14.066Z,98813.78
2023-05-18T10:47:46.996Z,98817.56
2023-05-18T10:50:18.440Z,98819.34
2023-05-18T10:52:49.602Z,98814.69
2023-05-18T10:55:21.180Z,98813.41
2023-05-18T10:57:53.868Z,98817.06
2023-05-18T11:00:22.447Z,98810.97
2023-05-18T11:02:51.993Z,98803.97
2023-05-18T11:05:25.851Z,98809.25
2023-05-18T11:08:03.557Z,98814.88
2023-05-18T11:10:36.174Z,98806.53
2023-05-18T11:13:07.171Z,98802.56
2023-05-18T11:16:08.673Z,98797.03
2023-05-18T11:18:45.423Z,98805.63
2023-05-18T11:21:21.638Z,98799.63
2023-05-18T11:24:17.326Z,98791.94
2023-05-18T11:26:47.180Z,98795.72
2023-05-18T11:29:19.898Z,98795.56
2023-05-18T11:31:49.020Z,98788.44
2023-05-18T11:34:39.427Z,98786.50
2023-05-18T11:37:10.093Z,98798.44
2023-05-18T11:39:47.888Z,98787.75
2023-05-18T11:42:24.416Z,98784.53
2023-05-18T11:44:59.497Z,98787.19
2023-05-18T11:47:33.431Z,98782.72
2023-05-18T11:50:07.449Z,98789.91
2023-05-18T11:52:45.951Z,98787.59
2023-05-18T11:55:18.482Z,98796.66
2023-05-18T11:57:50.054Z,98786.75
2023-05-18T12:00:18.669Z,98794.50
2023-05-18T12:02:52.143Z,98782.72
2023-05-18T12:05:22.771Z,98786.66
2023-05-18T12:08:02.228Z,98787.16
2023-05-18T12:10:33.067Z,98780.69
2023-05-18T12:13:02.758Z,98766.31
2023-05-18T12:15:35.021Z,98772.16
2023-05-18T12:18:30.939Z,98768.13
2023-05-18T12:21:04.706Z,98774.84
2023-05-18T12:23:39.549Z,98768.16
2023-05-18T12:26:11.533Z,98768.22
2023-05-18T12:28:43.053Z,98759.63
2023-05-18T12:31:14.410Z,98764.72
2023-05-18T12:33:45.352Z,98758.84
2023-05-18T12:36:14.106Z,98759.75
2023-05-18T12:38:42.599Z,98749.66
2023-05-18T12:41:12.060Z,98755.72
2023-05-18T12:43:41.622Z,98762.75
2023-05-18T12:46:12.056Z,98761.94
2023-05-18T12:48:49.987Z,98758.44
2023-05-18T12:51:22.627Z,98759.88
2023-05-18T12:53:51.498Z,98750.69
2023-05-18T12:56:21.516Z,98748.66
2023-05-18T12:58:57.948Z,98768.72
2023-05-18T13:01:26.661Z,98755.78
2023-05-18T13:04:00.581Z,98748.22
2023-05-18T13:06:30.075Z,98747.63
2023-05-18T13:08:58.157Z,98748.41
2023-05-18T13:11:30.547Z,98746.66
2023-05-18T13:13:59.230Z,98750.06
2023-05-18T13:16:30.343Z,98740.31
2023-05-18T13:19:01.794Z,98755.34
2023-05-18T13:21:31.106Z,98752.25
2023-05-18T13:23:59.322Z,98742.25
2023-05-18T13:26:28.988Z,98738.13
2023-05-18T13:28:58.161Z,98751.41
2023-05-18T13:31:26.301Z,98747.31
2023-05-18T13:33:55.169Z,98757.31
2023-05-18T13:36:23.174Z,98736.13
2023-05-18T13:38:53.430Z,98732.50
2023-05-18T13:41:21.660Z,98732.19
2023-05-18T13:43:51.062Z,98745.97
2023-05-18T13:46:20.035Z,98739.19
2023-05-18T13:48:47.896Z,98737.59
2023-05-18T13:51:16.279Z,98728.69
2023-05-18T13:53:45.824Z,98732.59
2023-05-18T13:56:18.343Z,98726.75
2023-05-18T13:58:47.367Z,98739.34
2023-05-18T14:01:18.016Z,98729.75
2023-05-18T14:03:46.810Z,98727.19
2023-05-18T14:06:14.881Z,98723.47
2023-05-18T14:08:43.530Z,98733.56
2023-05-18T14:11:11.417Z,98724.06
2023-05-18T14:13:39.617Z,98723.53
2023-05-18T14:16:12.311Z,98715.81
2023-05-18T14:18:41.802Z,98710.84
2023-05-18T14:21:10.977Z,98725.94
2023-05-18T14:23:39.606Z,98706.69
2023-05-18T14:26:07.836Z,98712.88
2023-05-18T14:28:35.852Z,98709.50
2023-05-18T14:31:03.653Z,98708.41
2023-05-18T14:33:32.616Z,98708.84
2023-05-18T14:36:02.020Z,98706.75
2023-05-18T14:38:30.015Z,98699.50
2023-05-18T14:40:58.087Z,98698.34
2023-05-18T14:43:26.744Z,98695.16
2023-05-18T14:46:08.162Z,98697.66
2023-05-18T14:48:36.927Z,98692.38
2023-05-18T14:51:06.418Z,98695.56
2023-05-18T14:53:34.337Z,98692.88
2023-05-18T14:56:06.145Z,98696.44
2023-05-18T14:58:34.290Z,98693.03
2023-05-18T15:01:03.547Z,98688.16
2023-05-18T15:03:31.428Z,98682.84
2023-05-18T15:06:04.354Z,98683.97
2023-05-18T15:08:33.986Z,98683.56
2023-05-18T15:11:16.328Z,98680.50
2023-05-18T15:13:44.496Z,98674.03
2023-05-18T15:16:12.998Z,98679.97
2023-05-18T15:18:43.384Z,98673.81
2023-05-18T15:21:18.787Z,98678.16
2023-05-18T15:23:47.925Z,98674.84
2023-05-18T15:26:16.145Z,98670.13
2023-05-18T15:28:45.198Z,98679.91
2023-05-18T15:31:23.904Z,98679.03
2023-05-18T15:33:51.859Z,98686.91
2023-05-18T15:36:21.508Z,98684.41
2023-05-18T15:38:52.840Z,98680.31
2023-05-18T15:41:22.191Z,98675.59
2023-05-18T15:43:54.007Z,98680.94
2023-05-18T15:46:22.030Z,98677.66
2023-05-18T15:48:51.345Z,98671.41
2023-05-18T15:51:19.867Z,98674.75
2023-05-18T15:53:47.956Z,98682.44
2023-05-18T15:56:18.366Z,98674.97
2023-05-18T15:58:46.340Z,98672.88
2023-05-18T16:01:14.284Z,98662.44
2023-05-18T16:03:43.088Z,98676.69
2023-05-18T16:06:11.651Z,98678.63
2023-05-18T16:08:39.584Z,98667.56
2023-05-18T16:11:08.132Z,98673.91
2023-05-18T16:13:38.587Z,98671.59
2023-05-18T16:16:14.104Z,98663.63
2023-05-18T16:18:42.395Z,98664.50
2023-05-18T16:21:11.608Z,98674.22
2023-05-18T16:23:42.780Z,98668.31
2023-05-18T16:26:12.682Z,98671.09
2023-05-18T16:28:46.524Z,98674.84
2023-05-18T16:31:18.511Z,98672.56
2023-05-18T16:33:48.571Z,98676.72
2023-05-18T16:36:18.057Z,98665.03
2023-05-18T16:38:46.062Z,98667.56
2023-05-18T16:41:14.829Z,98678.59
2023-05-18T16:43:44.782Z,98667.47
2023-05-18T16:46:13.912Z,98656.41
2023-05-18T16:48:42.134Z,98659.72
2023-05-18T16:51:11.382Z,98661.53
2023-05-18T16:53:40.099Z,98666.28
2023-05-18T16:56:09.515Z,98678.81
2023-05-18T16:58:37.697Z,98672.53
2023-05-18T17:01:19.467Z,98674.53
2023-05-18T17:03:55.184Z,98662.06
2023-05-18T17:06:23.183Z,98653.34
2023-05-18T17:08:57.348Z,98656.53
2023-05-18T17:11:27.115Z,98658.56
2023-05-18T17:13:59.957Z,98663.63
2023-05-18T17:16:30.248Z,98668.34
2023-05-18T17:18:58.356Z,98672.25
2023-05-18T17:21:28.555Z,98661.97
2023-05-18T17:23:59.865Z,98671.16
2023-05-18T17:26:30.797Z,98670.66
2023-05-18T17:28:59.827Z,98661.00
2023-05-18T17:31:30.444Z,98670.44
2023-05-18T17:33:58.491Z,98667.94
2023-05-18T17:36:27.158Z,98669.47
2023-05-18T17:38:56.158Z,98674.91
2023-05-18T17:41:25.853Z,98662.84
2023-05-18T17:43:54.864Z,98670.00
2023-05-18T17:46:25.373Z,98676.25
2023-05-18T17:48:54.715Z,98676.25
2023-05-18T17:51:25.331Z,98679.34
2023-05-18T17:53:53.682Z,98684.06
2023-05-18T17:56:22.153Z,98680.16
2023-05-18T17:58:50.289Z,98680.16
2023-05-18T18:01:18.104Z,98689.56
2023-05-18T18:03:46.662Z,98684.72
2023-05-18T18:06:17.855Z,98683.06
2023-05-18T18:08:48.029Z,98682.22
2023-05-18T18:11:15.829Z,98681.78
2023-05-18T18:13:43.726Z,98683.81
2023-05-18T18:16:11.795Z,98692.97
2023-05-18T18:18:40.198Z,98685.03
2023-05-18T18:21:09.674Z,98696.78
2023-05-18T18:23:40.173Z,98692.00
2023-05-18T18:26:10.253Z,98694.31
2023-05-18T18:28:38.185Z,98694.25
2023-05-18T18:31:06.136Z,98703.59
2023-05-18T18:33:34.113Z,98691.00
2023-05-18T18:36:04.430Z,98690.88
2023-05-18T18:38:34.141Z,98693.19
2023-05-18T18:41:05.345Z,98699.34
2023-05-18T18:43:35.187Z,98704.47
2023-05-18T18:46:04.604Z,98702.44
2023-05-18T18:48:36.005Z,98705.94
2023-05-18T18:51:05.447Z,98709.41
2023-05-18T18:53:33.643Z,98717.16
2023-05-18T18:56:03.503Z,98721.06
2023-05-18T18:58:34.640Z,98727.22
2023-05-18T19:01:02.402Z,98722.81
2023-05-18T19:03:33.021Z,98730.25
2023-05-18T19:06:02.617Z,98721.94
2023-05-18T19:08:33.044Z,98727.78
2023-05-18T19:11:01.371Z,98731.97
2023-05-18T19:13:32.556Z,98738.66
2023-05-18T19:16:01.009Z,98744.16
2023-05-18T19:18:30.125Z,98744.78
2023-05-18T19:21:01.145Z,98748.69
2023-05-18T19:23:30.739Z,98747.88
2023-05-18T19:26:05.069Z,98749.03
2023-05-18T19:28:36.797Z,98749.03
2023-05-18T19:31:08.598Z,98758.00
2023-05-18T19:33:43.797Z,98755.25
2023-05-18T19:36:14.604Z,98763.03
2023-05-18T19:38:44.020Z,98753.19
2023-05-18T19:41:15.058Z,98766.84
2023-05-18T19:43:44.443Z,98770.41
2023-05-18T19:46:17.323Z,98773.13
2023-05-18T19:48:49.312Z,98773.72
2023-05-18T19:51:20.529Z,98775.84
2023-05-18T19:53:51.099Z,98776.63
2023-05-18T19:56:21.883Z,98768.69
2023-05-18T19:58:54.714Z,98777.72
2023-05-18T20:01:28.897Z,98775.91
2023-05-18T20:04:00.988Z,98781.19
2023-05-18T20:06:31.862Z,98788.59
2023-05-18T20:09:09.124Z,98783.59
2023-05-18T20:11:39.776Z,98785.78
2023-05-18T20:14:11.568Z,98783.38
2023-05-18T20:16:41.049Z,98786.38
2023-05-18T20:19:10.047Z,98793.25
2023-05-18T20:21:45.194Z,98786.16
2023-05-18T20:24:14.864Z,98792.25
2023-05-18T20:26:45.679Z,98786.22
2023-05-18T20:29:17.660Z,98788.28
2023-05-18T20:31:49.720Z,98788.06
2023-05-18T20:34:19.412Z,98801.53
2023-05-18T20:36:52.541Z,98785.06
2023-05-18T20:39:23.298Z,98790.22
2023-05-18T20:41:53.968Z,98793.31
2023-05-18T20:44:31.211Z,98794.22
2023-05-18T20:47:01.297Z,98791.72
2023-05-18T20:49:29.456Z,98792.84
2023-05-18T20:52:09.872Z,98791.72
2023-05-18T20:54:39.127Z,98794.25
2023-05-18T20:57:08.757Z,98801.78
2023-05-18T20:59:38.006Z,98796.09
2023-05-18T21:02:09.021Z,98803.31
2023-05-18T21:04:40.759Z,98800.91
2023-05-18T21:07:11.848Z,98802.72
2023-05-18T21:09:40.419Z,98802.03
2023-05-18T21:12:09.803Z,98799.66
2023-05-18T21:14:42.238Z,98802.84
2023-05-18T21:17:17.687Z,98799.06
2023-05-18T21:19:50.357Z,98798.84
2023-05-18T21:22:20.373Z,98799.50
2023-05-18T21:24:51.139Z,98802.50
2023-05-18T21:27:21.362Z,98797.03
2023-05-18T21:29:53.615Z,98805.94
2023-05-18T21:32:22.281Z,98802.63
2023-05-18T21:34:50.768Z,98801.94
2023-05-18T21:37:30.172Z,98796.56
2023-05-18T21:39:58.872Z,98806.38
2023-05-18T21:42:35.266Z,98801.81
2023-05-18T21:45:08.057Z,98793.38
2023-05-18T21:47:38.204Z,98795.66
2023-05-18T21:50:09.290Z,98804.69
2023-05-18T21:52:37.684Z,98802.84
2023-05-18T21:55:09.574Z,98802.28
2023-05-18T21:57:38.416Z,98800.69
2023-05-18T22:00:13.066Z,98802.97
2023-05-18T22:02:42.838Z,98808.44
2023-05-18T22:05:12.760Z,98805.47
2023-05-18T22:07:41.144Z,98801.47
2023-05-18T22:10:13.837Z,98798.88
2023-05-18T22:12:49.188Z,98795.91
2023-05-18T22:15:24.405Z,98797.38
2023-05-18T22:17:54.253Z,98789.97
2023-05-18T22:20:23.904Z,98801.84
2023-05-18T22:22:54.394Z,98799.31
2023-05-18T22:25:24.885Z,98802.28
2023-05-18T22:27:54.489Z,98804.34
2023-05-18T22:30:27.673Z,98804.34
2023-05-18T22:32:58.788Z,98798.88
2023-05-18T22:35:28.415Z,98798.16
2023-05-18T22:38:00.766Z,98797.94
2023-05-18T22:40:28.774Z,98786.50
2023-05-18T22:42:58.776Z,98792.91
2023-05-18T22:45:30.228Z,98786.38
2023-05-18T22:47:59.029Z,98787.84
2023-05-18T22:50:36.399Z,98786.47
2023-05-18T22:53:10.219Z,98786.47
2023-05-18T22:55:38.771Z,98789.91
2023-05-18T22:58:08.118Z,98784.25
2023-05-18T23:00:38.725Z,98788.91
2023-05-18T23:03:09.334Z,98786.84
2023-05-18T23:05:41.410Z,98793.69
2023-05-18T23:08:19.367Z,98798.34
2023-05-18T23:10:50.697Z,98790.94
2023-05-18T23:13:20.082Z,98789.72
2023-05-18T23:16:00.178Z,98787.97
2023-05-18T23:18:31.993Z,98775.34
2023-05-18T23:21:02.858Z,98780.69
2023-05-18T23:23:34.748Z,98784.88
2023-05-18T23:26:06.304Z,98785.88
2023-05-18T23:28:36.609Z,98782.00
2023-05-18T23:31:06.934Z,98789.75
2023-05-18T23:33:46.878Z,98793.59
2023-05-18T23:36:19.629Z,98788.94
2023-05-18T23:38:50.153Z,98783.31
2023-05-18T23:41:19.885Z,98785.00
2023-05-18T23:43:48.118Z,98787.91
2023-05-18T23:46:24.911Z,98795.78
2023-05-18T23:48:54.843Z,98795.78
2023-05-18T23:51:25.909Z,98798.84
2023-05-18T23:53:58.136Z,98796.31
2023-05-18T23:56:33.273Z,98781.66
2023-05-18T23:59:03.668Z,98777.78
